ROYN/OGN METAR and TAF weather

Enter ICAO airport designator
Station Type Date Time Source
ROYN METAR 2021/08/01 17:00 UTC NOAA

ROYN 011700Z AUTO VRB02KT 9999 NSC 27/26 Q0997


Station Type Date Time Source
ROYN Decoded METAR 2021/08/01 17:00 UTC NOAA

Yonaguni Airport, Japan (ROYN) 24-28N 122-59E 19M
Aug 01, 2021 - 01:00 PM EDT / 2021.08.01 1700 UTC
Wind: Variable at 2 MPH (2 KT):0
Visibility: greater than 7 mile(s):0
Temperature: 80 F (27 C)
Dew Point: 78 F (26 C)
Relative Humidity: 94%
Pressure (altimeter): 29.44 in. Hg (0997 hPa)
ob: ROYN 011700Z AUTO VRB02KT 9999 NSC 27/26 Q0997
cycle: 17

Station Type Date Time Source
ROYN TAF UTC NOAA

Error!

Example: see airport list